Silver Creek, Washington
Current Conditions -  °F | °C
As of 8:35 PM on Sunday 25 Jan 2015 (Local Time) from KCLS Reporting Station
Moderate Fog Moderate Fog  
Wind Chill: 45°   Ceiling: 400
Heat Index: 45°   Visibility: 0.5mi
Dew Point: 45°   Wind: 0mph
Humidity: 100%   Direction: NA
Pressure: 30.01"   Gusts: NA
Location:  46.53°N, 122.59°W
Report Text: KCLS 260435Z AUTO 00000KT 1/2SM FG OVC004 07/07 A3001 RMK AO2
Loading
Personal Weather Stations






























Interactive Weather Map New forecast layout! Learn more

10-Day Weather Forecast

Advertisements
Track Severe Weather on mobile